Terminal Aerodrome Forecast
Issued by NWS

Home | Current Version | Previous Version | Text Only | Print | Product List | Glossary On
Versions: 1 2 3 4 5 6 7 8 9 10 11 12 13
000
FTUS46 KMFR 061739
TAFOTH
TAF
KOTH 061739Z 0618/0718 VRB03KT P6SM BKN003 BKN250
      TEMPO 0618/0620 1/2SM FG OVC002
     FM062000 33008G12KT P6SM SCT250
     FM070300 35004KT P6SM SCT250
     FM071000 VRB03KT 4SM BR SCT005 SCT250=

USA.gov is the U.S. government's official web portal to all federal, state and local government web resources and services.